Dixon, South Dakota
Current Conditions -  °F | °C
As of 1:53 PM on Thursday 29 Jan 2015 (Local Time) from KICR Reporting Station
Clear Clear  
Wind Chill:   Ceiling: Unl
Heat Index:   Visibility: 10mi
Dew Point: -5°   Wind: 16mph
Humidity: 47%   Direction: 340°NNW
Pressure: 30.45"   Gusts: NA
Location:  43.2419°N, 99.4287°W
Report Text: KICR 291953Z AUTO 34014KT 10SM CLR 06/M05 A3045 RMK AO2 SLP326 T00561050
Loading
Personal Weather Stations






























Interactive Weather Map New forecast layout! Learn more

10-Day Weather Forecast

Advertisements
Track Severe Weather on mobile